KPUB/PUB METAR and TAF weather

Enter ICAO airport designator
Station Type Date Time Source
KPUB METAR 2023/01/30 10:53 UTC NOAA

KPUB 301053Z AUTO 12008KT 5SM BR OVC007 M16/M18 A3011 RMK AO2 SNE08 SLP277 P0000 T11611183


Station Type Date Time Source
KPUB Decoded METAR 2023/01/30 10:53 UTC NOAA

PUEBLO MEMORIAL AIRPORT, CO, United States (KPUB) 38-17N 104-30W 1420M
Jan 30, 2023 - 05:53 AM EST / 2023.01.30 1053 UTC
Wind: from the ESE (120 degrees) at 9 MPH (8 KT):0
Visibility: 5 mile(s):0
Sky conditions: overcast
Weather: mist
Precipitation last hour: A trace
Temperature: 3.0 F (-16.1 C)
Windchill: -11 F (-24 C):2
Dew Point: -0.9 F (-18.3 C)
Relative Humidity: 83%
Pressure (altimeter): 30.11 in. Hg (1019 hPa)
ob: KPUB 301053Z AUTO 12008KT 5SM BR OVC007 M16/M18 A3011 RMK AO2 SNE08 SLP277 P0000 T11611183
cycle: 11

Station Type Date Time Source
KPUB TAF 2023/01/30 12:22 UTC NOAA

TAF KPUB 301120Z 3012/3112 11009KT P6SM VCSH BKN009 OVC015
TEMPO 3012/3016 2SM BR
FM301700 12008KT P6SM BKN020
FM302200 10008KT P6SM BKN020
FM310300 12007KT P6SM BKN020

Example: see airport list